Terminal Aerodrome Forecast
Issued by NWS North Platte, NE

Home | Current Version | Previous Version | Text Only | Print | Product List | Glossary Off
Versions: 1 2 3 4 5 6 7 8 9 10 11 12 13 14 15 16 17 18 19 20 21 22 23 24 25 26

000
FTUS43 KLBF 260536
TAFVTN
TAF
KVTN 260536Z 2606/2706 14012KT P6SM OVC004
     FM260900 14009KT 4SM BR OVC004
      TEMPO 2612/2615 1/2SM FG OVC003
     FM261500 16006KT 5SM BR OVC010
     FM261700 14005KT P6SM BKN050
     FM262000 04005KT P6SM BKN100
     FM262300 03008KT P6SM BKN080=

USA.gov is the U.S. government's official web portal to all federal, state and local government web resources and services.